sensor_id;sensor_type;location;lat;lon;timestamp;temperature;humidity
45137;DHT22;30894;51.740;19.498;2024-01-07T00:00:41;-3.60;99.90
45137;DHT22;30894;51.740;19.498;2024-01-07T00:03:27;-3.60;99.90
45137;DHT22;30894;51.740;19.498;2024-01-07T00:05:59;-3.60;99.90
45137;DHT22;30894;51.740;19.498;2024-01-07T00:08:25;-3.60;99.90
45137;DHT22;30894;51.740;19.498;2024-01-07T00:10:51;-3.60;99.90
45137;DHT22;30894;51.740;19.498;2024-01-07T00:13:19;-3.60;99.90
45137;DHT22;30894;51.740;19.498;2024-01-07T00:15:45;-3.70;99.90
45137;DHT22;30894;51.740;19.498;2024-01-07T00:18:11;-3.70;99.90
45137;DHT22;30894;51.740;19.498;2024-01-07T00:20:41;-3.60;99.90
45137;DHT22;30894;51.740;19.498;2024-01-07T00:23:10;-3.70;99.90
45137;DHT22;30894;51.740;19.498;2024-01-07T00:25:38;-3.70;99.90
45137;DHT22;30894;51.740;19.498;2024-01-07T00:28:04;-3.70;99.90
45137;DHT22;30894;51.740;19.498;2024-01-07T00:30:31;-3.70;99.90
45137;DHT22;30894;51.740;19.498;2024-01-07T00:32:59;-3.90;99.90
45137;DHT22;30894;51.740;19.498;2024-01-07T00:35:31;-3.70;99.90
45137;DHT22;30894;51.740;19.498;2024-01-07T00:37:59;-3.70;99.90
45137;DHT22;30894;51.740;19.498;2024-01-07T00:40:26;-3.70;99.90
45137;DHT22;30894;51.740;19.498;2024-01-07T00:42:57;-3.80;99.90
45137;DHT22;30894;51.740;19.498;2024-01-07T00:45:25;-3.10;99.90
45137;DHT22;30894;51.740;19.498;2024-01-07T00:47:51;-3.80;99.90
45137;DHT22;30894;51.740;19.498;2024-01-07T00:50:22;-3.80;99.90
45137;DHT22;30894;51.740;19.498;2024-01-07T00:52:48;-3.80;99.90
45137;DHT22;30894;51.740;19.498;2024-01-07T00:55:15;-3.80;99.90
45137;DHT22;30894;51.740;19.498;2024-01-07T00:57:41;-3.80;99.90
45137;DHT22;30894;51.740;19.498;2024-01-07T01:00:08;-3.90;99.90
45137;DHT22;30894;51.740;19.498;2024-01-07T01:02:34;-3.80;99.90
45137;DHT22;30894;51.740;19.498;2024-01-07T01:05:02;-3.80;99.90
45137;DHT22;30894;51.740;19.498;2024-01-07T01:07:39;-3.80;99.90
45137;DHT22;30894;51.740;19.498;2024-01-07T01:10:09;-3.90;99.90
45137;DHT22;30894;51.740;19.498;2024-01-07T01:12:35;-3.90;99.90
45137;DHT22;30894;51.740;19.498;2024-01-07T01:15:05;-3.90;99.90
45137;DHT22;30894;51.740;19.498;2024-01-07T01:17:31;-3.90;99.90
45137;DHT22;30894;51.740;19.498;2024-01-07T01:19:58;-3.90;99.90
45137;DHT22;30894;51.740;19.498;2024-01-07T01:22:24;-4.00;99.90
45137;DHT22;30894;51.740;19.498;2024-01-07T01:24:54;-4.00;99.90
45137;DHT22;30894;51.740;19.498;2024-01-07T01:27:21;-3.60;99.90
45137;DHT22;30894;51.740;19.498;2024-01-07T01:29:49;-4.00;99.90
45137;DHT22;30894;51.740;19.498;2024-01-07T01:32:15;-3.70;99.90
45137;DHT22;30894;51.740;19.498;2024-01-07T01:34:43;-4.00;99.90
45137;DHT22;30894;51.740;19.498;2024-01-07T01:37:10;-4.00;99.90
45137;DHT22;30894;51.740;19.498;2024-01-07T01:39:40;-4.10;99.90
45137;DHT22;30894;51.740;19.498;2024-01-07T01:42:07;-4.00;99.90
45137;DHT22;30894;51.740;19.498;2024-01-07T01:44:36;-4.10;99.90
45137;DHT22;30894;51.740;19.498;2024-01-07T01:47:06;-4.10;99.90
45137;DHT22;30894;51.740;19.498;2024-01-07T01:49:33;-4.10;99.90
45137;DHT22;30894;51.740;19.498;2024-01-07T01:52:01;-4.10;99.90
45137;DHT22;30894;51.740;19.498;2024-01-07T01:54:28;-4.10;99.90
45137;DHT22;30894;51.740;19.498;2024-01-07T01:57:04;-4.20;99.90
45137;DHT22;30894;51.740;19.498;2024-01-07T01:59:34;-4.20;99.90
45137;DHT22;30894;51.740;19.498;2024-01-07T02:09:43;-4.30;99.90
45137;DHT22;30894;51.740;19.498;2024-01-07T02:12:21;-4.20;99.90
45137;DHT22;30894;51.740;19.498;2024-01-07T02:14:51;-4.30;99.90
45137;DHT22;30894;51.740;19.498;2024-01-07T02:17:30;-4.30;99.90
45137;DHT22;30894;51.740;19.498;2024-01-07T02:20:00;-3.90;99.90
45137;DHT22;30894;51.740;19.498;2024-01-07T02:22:36;-4.30;99.90
45137;DHT22;30894;51.740;19.498;2024-01-07T02:25:13;-4.30;99.90
45137;DHT22;30894;51.740;19.498;2024-01-07T02:28:01;-4.30;99.90
45137;DHT22;30894;51.740;19.498;2024-01-07T02:30:51;-5.10;99.90
45137;DHT22;30894;51.740;19.498;2024-01-07T02:33:20;-4.30;99.90
45137;DHT22;30894;51.740;19.498;2024-01-07T02:35:47;-4.30;99.90
45137;DHT22;30894;51.740;19.498;2024-01-07T02:38:18;-4.30;99.90
45137;DHT22;30894;51.740;19.498;2024-01-07T02:40:51;-4.30;99.90
45137;DHT22;30894;51.740;19.498;2024-01-07T02:43:21;-4.40;99.90
45137;DHT22;30894;51.740;19.498;2024-01-07T02:45:51;-4.40;99.90
45137;DHT22;30894;51.740;19.498;2024-01-07T02:48:23;-4.30;99.90
45137;DHT22;30894;51.740;19.498;2024-01-07T02:51:04;-4.40;99.90
45137;DHT22;30894;51.740;19.498;2024-01-07T02:53:34;-4.40;99.90
45137;DHT22;30894;51.740;19.498;2024-01-07T02:56:01;-5.30;99.90
45137;DHT22;30894;51.740;19.498;2024-01-07T02:58:42;-4.50;99.90
45137;DHT22;30894;51.740;19.498;2024-01-07T03:01:12;-4.50;99.90
45137;DHT22;30894;51.740;19.498;2024-01-07T03:03:45;-4.40;99.90
45137;DHT22;30894;51.740;19.498;2024-01-07T03:06:41;-4.50;99.90
45137;DHT22;30894;51.740;19.498;2024-01-07T03:09:16;-4.20;99.90
45137;DHT22;30894;51.740;19.498;2024-01-07T03:11:55;-4.60;99.90
45137;DHT22;30894;51.740;19.498;2024-01-07T03:14:36;-5.00;99.90
45137;DHT22;30894;51.740;19.498;2024-01-07T03:17:20;-4.20;99.90
45137;DHT22;30894;51.740;19.498;2024-01-07T03:20:03;-4.60;99.90
45137;DHT22;30894;51.740;19.498;2024-01-07T03:22:56;-4.70;99.90
45137;DHT22;30894;51.740;19.498;2024-01-07T03:25:28;-4.70;99.90
45137;DHT22;30894;51.740;19.498;2024-01-07T03:28:16;-4.80;99.90
45137;DHT22;30894;51.740;19.498;2024-01-07T03:31:15;-4.80;99.90
45137;DHT22;30894;51.740;19.498;2024-01-07T03:34:03;-4.90;99.90
45137;DHT22;30894;51.740;19.498;2024-01-07T03:36:32;-4.90;99.90
45137;DHT22;30894;51.740;19.498;2024-01-07T04:15:34;-5.20;99.90
45137;DHT22;30894;51.740;19.498;2024-01-07T04:18:10;-5.20;99.90
45137;DHT22;30894;51.740;19.498;2024-01-07T04:24:29;-5.70;99.90
45137;DHT22;30894;51.740;19.498;2024-01-07T04:27:29;-5.30;99.90
45137;DHT22;30894;51.740;19.498;2024-01-07T04:30:09;-5.30;99.90
45137;DHT22;30894;51.740;19.498;2024-01-07T04:32:41;-5.40;99.90
45137;DHT22;30894;51.740;19.498;2024-01-07T04:35:47;-5.40;99.90
45137;DHT22;30894;51.740;19.498;2024-01-07T04:38:50;-5.40;99.90
45137;DHT22;30894;51.740;19.498;2024-01-07T04:41:41;-5.00;99.90
45137;DHT22;30894;51.740;19.498;2024-01-07T04:44:20;-4.80;99.90
45137;DHT22;30894;51.740;19.498;2024-01-07T04:53:20;-5.50;99.90
45137;DHT22;30894;51.740;19.498;2024-01-07T04:59:45;-5.50;99.90
45137;DHT22;30894;51.740;19.498;2024-01-07T05:02:27;-5.00;99.90
45137;DHT22;30894;51.740;19.498;2024-01-07T05:05:00;-5.60;99.90
45137;DHT22;30894;51.740;19.498;2024-01-07T05:10:50;-5.70;99.90
45137;DHT22;30894;51.740;19.498;2024-01-07T05:13:30;-5.80;99.90
45137;DHT22;30894;51.740;19.498;2024-01-07T05:16:20;-5.60;99.90
45137;DHT22;30894;51.740;19.498;2024-01-07T05:19:02;-5.70;99.90
45137;DHT22;30894;51.740;19.498;2024-01-07T05:21:33;-5.30;99.90
45137;DHT22;30894;51.740;19.498;2024-01-07T05:36:10;-5.60;99.90
45137;DHT22;30894;51.740;19.498;2024-01-07T06:22:25;-5.80;99.90
45137;DHT22;30894;51.740;19.498;2024-01-07T06:24:56;-5.50;99.90
45137;DHT22;30894;51.740;19.498;2024-01-07T06:42:35;-6.10;99.90
45137;DHT22;30894;51.740;19.498;2024-01-07T06:45:06;-6.20;99.90
45137;DHT22;30894;51.740;19.498;2024-01-07T07:07:07;-6.30;99.90
45137;DHT22;30894;51.740;19.498;2024-01-07T07:10:47;-6.20;99.90
45137;DHT22;30894;51.740;19.498;2024-01-07T07:36:21;-6.00;99.90
45137;DHT22;30894;51.740;19.498;2024-01-07T07:38:59;-6.00;99.90
45137;DHT22;30894;51.740;19.498;2024-01-07T07:41:29;-5.90;99.90
45137;DHT22;30894;51.740;19.498;2024-01-07T07:44:05;-6.00;99.90
45137;DHT22;30894;51.740;19.498;2024-01-07T07:46:33;-6.00;99.90
45137;DHT22;30894;51.740;19.498;2024-01-07T07:49:07;-5.90;99.90
45137;DHT22;30894;51.740;19.498;2024-01-07T07:51:56;-5.90;99.90
45137;DHT22;30894;51.740;19.498;2024-01-07T07:54:45;-5.90;99.90
45137;DHT22;30894;51.740;19.498;2024-01-07T07:57:15;-5.90;99.90
45137;DHT22;30894;51.740;19.498;2024-01-07T07:59:49;-5.90;99.90
45137;DHT22;30894;51.740;19.498;2024-01-07T08:02:23;-6.00;99.90
45137;DHT22;30894;51.740;19.498;2024-01-07T08:04:50;-5.90;99.90
45137;DHT22;30894;51.740;19.498;2024-01-07T08:07:20;-5.90;99.90
45137;DHT22;30894;51.740;19.498;2024-01-07T08:10:05;-5.80;99.90
45137;DHT22;30894;51.740;19.498;2024-01-07T08:12:37;-5.90;99.90
45137;DHT22;30894;51.740;19.498;2024-01-07T08:15:05;-5.90;99.90
45137;DHT22;30894;51.740;19.498;2024-01-07T08:17:40;-5.90;99.90
45137;DHT22;30894;51.740;19.498;2024-01-07T08:20:14;-5.90;99.90
45137;DHT22;30894;51.740;19.498;2024-01-07T08:22:51;-5.80;99.90
45137;DHT22;30894;51.740;19.498;2024-01-07T08:26:08;-5.80;99.90
45137;DHT22;30894;51.740;19.498;2024-01-07T08:28:49;-5.80;99.90
45137;DHT22;30894;51.740;19.498;2024-01-07T08:31:41;-5.80;99.90
45137;DHT22;30894;51.740;19.498;2024-01-07T08:34:21;-5.80;99.90
45137;DHT22;30894;51.740;19.498;2024-01-07T08:36:53;-5.80;99.90
45137;DHT22;30894;51.740;19.498;2024-01-07T08:39:43;-5.80;99.90
45137;DHT22;30894;51.740;19.498;2024-01-07T08:42:10;-5.70;99.90
45137;DHT22;30894;51.740;19.498;2024-01-07T08:44:42;-5.70;99.90
45137;DHT22;30894;51.740;19.498;2024-01-07T08:47:12;-5.80;99.90
45137;DHT22;30894;51.740;19.498;2024-01-07T08:49:51;-5.70;99.90
45137;DHT22;30894;51.740;19.498;2024-01-07T08:52:20;-5.70;99.90
45137;DHT22;30894;51.740;19.498;2024-01-07T08:54:49;-5.70;99.90
45137;DHT22;30894;51.740;19.498;2024-01-07T08:57:21;-5.60;99.90
45137;DHT22;30894;51.740;19.498;2024-01-07T08:59:53;-5.50;99.90
45137;DHT22;30894;51.740;19.498;2024-01-07T09:17:29;-5.40;99.90
45137;DHT22;30894;51.740;19.498;2024-01-07T09:20:21;-5.40;99.90
45137;DHT22;30894;51.740;19.498;2024-01-07T09:22:48;-5.40;99.90
45137;DHT22;30894;51.740;19.498;2024-01-07T09:25:18;-5.40;99.90
45137;DHT22;30894;51.740;19.498;2024-01-07T09:27:52;-5.30;99.90
45137;DHT22;30894;51.740;19.498;2024-01-07T09:30:52;-5.40;99.90
45137;DHT22;30894;51.740;19.498;2024-01-07T09:33:29;-5.30;99.90
45137;DHT22;30894;51.740;19.498;2024-01-07T09:36:17;-5.40;99.90
45137;DHT22;30894;51.740;19.498;2024-01-07T09:38:51;-5.40;99.90
45137;DHT22;30894;51.740;19.498;2024-01-07T09:41:34;-5.30;99.90
45137;DHT22;30894;51.740;19.498;2024-01-07T09:44:34;-5.40;99.90
45137;DHT22;30894;51.740;19.498;2024-01-07T09:47:31;-5.30;99.90
45137;DHT22;30894;51.740;19.498;2024-01-07T09:49:58;-5.30;99.90
45137;DHT22;30894;51.740;19.498;2024-01-07T09:52:35;-5.20;99.90
45137;DHT22;30894;51.740;19.498;2024-01-07T09:55:12;-5.20;99.90
45137;DHT22;30894;51.740;19.498;2024-01-07T09:57:49;-5.10;99.90
45137;DHT22;30894;51.740;19.498;2024-01-07T10:00:19;-5.10;99.90
45137;DHT22;30894;51.740;19.498;2024-01-07T10:02:59;-5.00;99.90
45137;DHT22;30894;51.740;19.498;2024-01-07T10:05:39;-5.00;99.90
45137;DHT22;30894;51.740;19.498;2024-01-07T10:08:08;-5.00;99.90
45137;DHT22;30894;51.740;19.498;2024-01-07T10:10:43;-5.00;99.90
45137;DHT22;30894;51.740;19.498;2024-01-07T10:13:17;-4.90;99.90
45137;DHT22;30894;51.740;19.498;2024-01-07T10:15:59;-4.90;99.90
45137;DHT22;30894;51.740;19.498;2024-01-07T10:18:28;-4.90;99.90
45137;DHT22;30894;51.740;19.498;2024-01-07T10:21:02;-4.80;99.90
45137;DHT22;30894;51.740;19.498;2024-01-07T10:23:45;-4.80;99.90
45137;DHT22;30894;51.740;19.498;2024-01-07T10:26:32;-4.80;99.90
45137;DHT22;30894;51.740;19.498;2024-01-07T10:29:07;-4.70;99.90
45137;DHT22;30894;51.740;19.498;2024-01-07T10:31:48;-4.70;99.90
45137;DHT22;30894;51.740;19.498;2024-01-07T10:34:24;-4.70;99.90
45137;DHT22;30894;51.740;19.498;2024-01-07T10:36:54;-4.70;99.90
45137;DHT22;30894;51.740;19.498;2024-01-07T10:39:27;-4.50;99.90
45137;DHT22;30894;51.740;19.498;2024-01-07T10:41:55;-4.50;99.90
45137;DHT22;30894;51.740;19.498;2024-01-07T10:44:33;-4.40;99.90
45137;DHT22;30894;51.740;19.498;2024-01-07T10:47:06;-4.50;99.90
45137;DHT22;30894;51.740;19.498;2024-01-07T10:49:40;-4.50;99.90
45137;DHT22;30894;51.740;19.498;2024-01-07T10:52:10;-4.50;99.90
45137;DHT22;30894;51.740;19.498;2024-01-07T10:54:50;-4.50;99.90
45137;DHT22;30894;51.740;19.498;2024-01-07T10:57:39;-4.40;99.90
45137;DHT22;30894;51.740;19.498;2024-01-07T11:00:20;-4.40;99.90
45137;DHT22;30894;51.740;19.498;2024-01-07T11:03:24;-4.40;99.90
45137;DHT22;30894;51.740;19.498;2024-01-07T11:06:01;-4.40;99.90
45137;DHT22;30894;51.740;19.498;2024-01-07T11:08:41;-4.40;99.90
45137;DHT22;30894;51.740;19.498;2024-01-07T11:11:23;-4.30;99.90
45137;DHT22;30894;51.740;19.498;2024-01-07T11:14:35;-4.30;99.90
45137;DHT22;30894;51.740;19.498;2024-01-07T11:20:16;-4.10;99.90
45137;DHT22;30894;51.740;19.498;2024-01-07T11:22:48;-4.00;99.90
45137;DHT22;30894;51.740;19.498;2024-01-07T11:25:35;-3.90;99.90
45137;DHT22;30894;51.740;19.498;2024-01-07T11:28:06;-3.80;99.90
45137;DHT22;30894;51.740;19.498;2024-01-07T11:30:39;-3.70;99.90
45137;DHT22;30894;51.740;19.498;2024-01-07T11:33:32;-3.60;99.90
45137;DHT22;30894;51.740;19.498;2024-01-07T11:36:02;-3.60;99.90
45137;DHT22;30894;51.740;19.498;2024-01-07T11:38:48;-3.70;99.90
45137;DHT22;30894;51.740;19.498;2024-01-07T11:41:21;-3.80;99.90
45137;DHT22;30894;51.740;19.498;2024-01-07T11:43:58;-3.80;99.90
45137;DHT22;30894;51.740;19.498;2024-01-07T11:47:01;-3.90;99.90
45137;DHT22;30894;51.740;19.498;2024-01-07T11:49:32;-3.90;99.90
45137;DHT22;30894;51.740;19.498;2024-01-07T11:52:00;-4.00;99.90
45137;DHT22;30894;51.740;19.498;2024-01-07T11:54:34;-4.10;99.90
45137;DHT22;30894;51.740;19.498;2024-01-07T11:57:01;-4.10;99.90
45137;DHT22;30894;51.740;19.498;2024-01-07T11:59:35;-4.10;99.90
45137;DHT22;30894;51.740;19.498;2024-01-07T12:02:08;-4.20;99.90
45137;DHT22;30894;51.740;19.498;2024-01-07T12:04:48;-4.20;99.90
45137;DHT22;30894;51.740;19.498;2024-01-07T12:07:21;-4.20;99.90
45137;DHT22;30894;51.740;19.498;2024-01-07T12:09:57;-4.30;99.90
45137;DHT22;30894;51.740;19.498;2024-01-07T12:12:53;-4.30;99.90
45137;DHT22;30894;51.740;19.498;2024-01-07T12:15:24;-4.40;99.90
45137;DHT22;30894;51.740;19.498;2024-01-07T12:17:58;-4.40;99.90
45137;DHT22;30894;51.740;19.498;2024-01-07T12:20:27;-4.60;99.90
45137;DHT22;30894;51.740;19.498;2024-01-07T12:23:04;-4.50;99.90
45137;DHT22;30894;51.740;19.498;2024-01-07T12:25:52;-4.40;99.90
45137;DHT22;30894;51.740;19.498;2024-01-07T12:28:39;-4.40;99.90
45137;DHT22;30894;51.740;19.498;2024-01-07T12:31:15;-4.40;99.90
45137;DHT22;30894;51.740;19.498;2024-01-07T12:33:51;-4.50;99.90
45137;DHT22;30894;51.740;19.498;2024-01-07T12:36:36;-4.50;99.90
45137;DHT22;30894;51.740;19.498;2024-01-07T12:39:12;-4.50;99.90
45137;DHT22;30894;51.740;19.498;2024-01-07T12:41:43;-4.60;99.90
45137;DHT22;30894;51.740;19.498;2024-01-07T12:44:10;-4.60;99.90
45137;DHT22;30894;51.740;19.498;2024-01-07T12:46:37;-4.50;99.90
45137;DHT22;30894;51.740;19.498;2024-01-07T12:49:03;-4.70;99.90
45137;DHT22;30894;51.740;19.498;2024-01-07T12:51:35;-4.80;99.90
45137;DHT22;30894;51.740;19.498;2024-01-07T12:54:09;-4.80;99.90
45137;DHT22;30894;51.740;19.498;2024-01-07T12:56:38;-4.90;99.90
45137;DHT22;30894;51.740;19.498;2024-01-07T12:59:05;-4.90;99.90
45137;DHT22;30894;51.740;19.498;2024-01-07T13:01:31;-4.80;99.90
45137;DHT22;30894;51.740;19.498;2024-01-07T13:03:58;-5.00;99.90
45137;DHT22;30894;51.740;19.498;2024-01-07T13:06:25;-5.00;99.90
45137;DHT22;30894;51.740;19.498;2024-01-07T13:08:53;-5.00;99.90
45137;DHT22;30894;51.740;19.498;2024-01-07T13:11:35;-5.10;99.90
45137;DHT22;30894;51.740;19.498;2024-01-07T13:14:11;-5.10;99.90
45137;DHT22;30894;51.740;19.498;2024-01-07T13:16:41;-5.10;99.90
45137;DHT22;30894;51.740;19.498;2024-01-07T13:19:13;-5.00;99.90
45137;DHT22;30894;51.740;19.498;2024-01-07T13:21:41;-5.20;99.90
45137;DHT22;30894;51.740;19.498;2024-01-07T13:24:09;-5.20;99.90
45137;DHT22;30894;51.740;19.498;2024-01-07T13:26:37;-5.30;99.90
45137;DHT22;30894;51.740;19.498;2024-01-07T13:29:09;-5.10;99.90
45137;DHT22;30894;51.740;19.498;2024-01-07T13:31:44;-5.30;99.90
45137;DHT22;30894;51.740;19.498;2024-01-07T13:34:10;-5.30;99.90
45137;DHT22;30894;51.740;19.498;2024-01-07T13:36:38;-5.30;99.90
45137;DHT22;30894;51.740;19.498;2024-01-07T13:39:14;-5.40;99.90
45137;DHT22;30894;51.740;19.498;2024-01-07T13:41:43;-5.40;99.90
45137;DHT22;30894;51.740;19.498;2024-01-07T13:44:13;-5.40;99.90
45137;DHT22;30894;51.740;19.498;2024-01-07T13:46:54;-5.50;99.90
45137;DHT22;30894;51.740;19.498;2024-01-07T13:49:20;-5.60;99.90
45137;DHT22;30894;51.740;19.498;2024-01-07T13:51:51;-5.70;99.90
45137;DHT22;30894;51.740;19.498;2024-01-07T13:54:17;-5.70;99.90
45137;DHT22;30894;51.740;19.498;2024-01-07T13:56:54;-5.70;99.90
45137;DHT22;30894;51.740;19.498;2024-01-07T13:59:21;-5.80;99.90
45137;DHT22;30894;51.740;19.498;2024-01-07T14:02:05;-5.80;99.90
45137;DHT22;30894;51.740;19.498;2024-01-07T14:04:38;-5.90;99.90
45137;DHT22;30894;51.740;19.498;2024-01-07T14:07:20;-6.00;99.90
45137;DHT22;30894;51.740;19.498;2024-01-07T14:09:50;-6.00;99.90
45137;DHT22;30894;51.740;19.498;2024-01-07T14:12:18;-6.00;99.90
45137;DHT22;30894;51.740;19.498;2024-01-07T14:14:44;-6.00;99.90
45137;DHT22;30894;51.740;19.498;2024-01-07T14:17:11;-6.00;99.90
45137;DHT22;30894;51.740;19.498;2024-01-07T14:19:41;-6.00;99.90
45137;DHT22;30894;51.740;19.498;2024-01-07T14:22:15;-6.10;99.90
45137;DHT22;30894;51.740;19.498;2024-01-07T14:25:04;-6.10;99.90
45137;DHT22;30894;51.740;19.498;2024-01-07T14:27:37;-6.20;99.90
45137;DHT22;30894;51.740;19.498;2024-01-07T14:30:08;-6.20;99.90
45137;DHT22;30894;51.740;19.498;2024-01-07T14:32:41;-6.20;99.90
45137;DHT22;30894;51.740;19.498;2024-01-07T14:35:16;-6.20;99.90
45137;DHT22;30894;51.740;19.498;2024-01-07T14:37:44;-6.30;99.90
45137;DHT22;30894;51.740;19.498;2024-01-07T14:40:12;-6.30;99.90
45137;DHT22;30894;51.740;19.498;2024-01-07T14:42:40;-6.30;99.90
45137;DHT22;30894;51.740;19.498;2024-01-07T14:45:07;-6.40;99.90
45137;DHT22;30894;51.740;19.498;2024-01-07T14:47:37;-6.40;99.90
45137;DHT22;30894;51.740;19.498;2024-01-07T14:50:19;-6.40;99.90
45137;DHT22;30894;51.740;19.498;2024-01-07T14:52:47;-6.40;99.90
45137;DHT22;30894;51.740;19.498;2024-01-07T14:55:18;-6.40;99.90
45137;DHT22;30894;51.740;19.498;2024-01-07T14:57:49;-6.50;99.90
45137;DHT22;30894;51.740;19.498;2024-01-07T15:00:23;-6.40;99.90
45137;DHT22;30894;51.740;19.498;2024-01-07T15:03:09;-6.50;99.90
45137;DHT22;30894;51.740;19.498;2024-01-07T15:05:43;-6.60;99.90
45137;DHT22;30894;51.740;19.498;2024-01-07T15:08:11;-6.50;99.90
45137;DHT22;30894;51.740;19.498;2024-01-07T15:10:45;-6.60;99.90
45137;DHT22;30894;51.740;19.498;2024-01-07T15:13:14;-6.60;99.90
45137;DHT22;30894;51.740;19.498;2024-01-07T15:15:43;-6.60;99.90
45137;DHT22;30894;51.740;19.498;2024-01-07T15:18:12;-6.60;99.90
45137;DHT22;30894;51.740;19.498;2024-01-07T15:20:41;-6.60;99.90
45137;DHT22;30894;51.740;19.498;2024-01-07T15:23:12;-6.60;99.90
45137;DHT22;30894;51.740;19.498;2024-01-07T15:25:42;-6.60;99.90
45137;DHT22;30894;51.740;19.498;2024-01-07T15:28:13;-6.60;99.90
45137;DHT22;30894;51.740;19.498;2024-01-07T15:30:40;-6.60;99.90
45137;DHT22;30894;51.740;19.498;2024-01-07T15:33:14;-6.60;99.90
45137;DHT22;30894;51.740;19.498;2024-01-07T15:35:47;-6.70;99.90
45137;DHT22;30894;51.740;19.498;2024-01-07T15:38:15;-6.70;99.90
45137;DHT22;30894;51.740;19.498;2024-01-07T15:40:41;-6.70;99.90
45137;DHT22;30894;51.740;19.498;2024-01-07T15:43:12;-6.70;99.90
45137;DHT22;30894;51.740;19.498;2024-01-07T15:45:42;-6.70;99.90
45137;DHT22;30894;51.740;19.498;2024-01-07T15:48:12;-6.70;99.90
45137;DHT22;30894;51.740;19.498;2024-01-07T15:50:49;-6.70;99.90
45137;DHT22;30894;51.740;19.498;2024-01-07T15:53:24;-6.70;99.90
45137;DHT22;30894;51.740;19.498;2024-01-07T15:56:13;-6.70;99.90
45137;DHT22;30894;51.740;19.498;2024-01-07T15:58:47;-6.70;99.90
45137;DHT22;30894;51.740;19.498;2024-01-07T16:01:14;-6.70;99.90
45137;DHT22;30894;51.740;19.498;2024-01-07T16:03:44;-6.70;99.90
45137;DHT22;30894;51.740;19.498;2024-01-07T16:06:17;-6.80;99.90
45137;DHT22;30894;51.740;19.498;2024-01-07T16:08:56;-6.90;99.90
45137;DHT22;30894;51.740;19.498;2024-01-07T16:11:30;-6.80;99.90
45137;DHT22;30894;51.740;19.498;2024-01-07T16:14:00;-7.00;99.90
45137;DHT22;30894;51.740;19.498;2024-01-07T16:16:27;-7.00;99.90
45137;DHT22;30894;51.740;19.498;2024-01-07T16:19:01;-6.90;99.90
45137;DHT22;30894;51.740;19.498;2024-01-07T16:21:33;-6.90;99.90
45137;DHT22;30894;51.740;19.498;2024-01-07T16:24:04;-6.90;99.90
45137;DHT22;30894;51.740;19.498;2024-01-07T16:27:01;-6.90;99.90
45137;DHT22;30894;51.740;19.498;2024-01-07T16:29:28;-7.00;99.90
45137;DHT22;30894;51.740;19.498;2024-01-07T16:32:07;-7.00;99.90
45137;DHT22;30894;51.740;19.498;2024-01-07T16:34:54;-7.00;99.90
45137;DHT22;30894;51.740;19.498;2024-01-07T16:37:44;-7.00;99.90
45137;DHT22;30894;51.740;19.498;2024-01-07T16:40:23;-7.00;99.90
45137;DHT22;30894;51.740;19.498;2024-01-07T16:42:54;-7.00;99.90
45137;DHT22;30894;51.740;19.498;2024-01-07T16:46:12;-7.10;99.90
45137;DHT22;30894;51.740;19.498;2024-01-07T16:49:17;-7.20;99.90
45137;DHT22;30894;51.740;19.498;2024-01-07T16:52:17;-7.00;99.90
45137;DHT22;30894;51.740;19.498;2024-01-07T16:55:08;-7.10;99.90
45137;DHT22;30894;51.740;19.498;2024-01-07T17:02:28;-7.10;99.90
45137;DHT22;30894;51.740;19.498;2024-01-07T17:04:58;-7.00;99.90
45137;DHT22;30894;51.740;19.498;2024-01-07T17:07:30;-7.10;99.90
45137;DHT22;30894;51.740;19.498;2024-01-07T17:09:56;-7.00;99.90
45137;DHT22;30894;51.740;19.498;2024-01-07T17:12:29;-7.00;99.90
45137;DHT22;30894;51.740;19.498;2024-01-07T17:14:56;-7.00;99.90
45137;DHT22;30894;51.740;19.498;2024-01-07T17:17:22;-7.10;99.90
45137;DHT22;30894;51.740;19.498;2024-01-07T17:19:53;-7.10;99.90
45137;DHT22;30894;51.740;19.498;2024-01-07T17:22:22;-7.10;99.90
45137;DHT22;30894;51.740;19.498;2024-01-07T17:27:32;-7.10;99.90
45137;DHT22;30894;51.740;19.498;2024-01-07T17:30:02;-7.00;99.90
45137;DHT22;30894;51.740;19.498;2024-01-07T17:32:28;-7.10;99.90
45137;DHT22;30894;51.740;19.498;2024-01-07T17:34:57;-7.10;99.90
45137;DHT22;30894;51.740;19.498;2024-01-07T17:37:23;-7.10;99.90
45137;DHT22;30894;51.740;19.498;2024-01-07T17:39:53;-7.10;99.90
45137;DHT22;30894;51.740;19.498;2024-01-07T17:42:23;-7.30;99.90
45137;DHT22;30894;51.740;19.498;2024-01-07T17:44:50;-7.20;99.90
45137;DHT22;30894;51.740;19.498;2024-01-07T17:47:19;-7.20;99.90
45137;DHT22;30894;51.740;19.498;2024-01-07T17:49:45;-7.20;99.90
45137;DHT22;30894;51.740;19.498;2024-01-07T17:52:13;-7.20;99.90
45137;DHT22;30894;51.740;19.498;2024-01-07T17:54:51;-7.20;99.90
45137;DHT22;30894;51.740;19.498;2024-01-07T17:57:18;-7.30;99.90
45137;DHT22;30894;51.740;19.498;2024-01-07T17:59:44;-7.30;99.90
45137;DHT22;30894;51.740;19.498;2024-01-07T18:02:14;-7.30;99.90
45137;DHT22;30894;51.740;19.498;2024-01-07T18:04:41;-7.30;99.90
45137;DHT22;30894;51.740;19.498;2024-01-07T18:07:07;-7.30;99.90
45137;DHT22;30894;51.740;19.498;2024-01-07T18:09:36;-7.30;99.90
45137;DHT22;30894;51.740;19.498;2024-01-07T18:12:06;-7.30;99.90
45137;DHT22;30894;51.740;19.498;2024-01-07T18:14:32;-7.40;99.90
45137;DHT22;30894;51.740;19.498;2024-01-07T18:16:58;-7.40;99.90
45137;DHT22;30894;51.740;19.498;2024-01-07T18:19:24;-7.40;99.90
45137;DHT22;30894;51.740;19.498;2024-01-07T18:21:51;-7.30;99.90
45137;DHT22;30894;51.740;19.498;2024-01-07T18:24:20;-7.30;99.90
45137;DHT22;30894;51.740;19.498;2024-01-07T18:26:46;-7.30;99.90
45137;DHT22;30894;51.740;19.498;2024-01-07T18:29:13;-7.30;99.90
45137;DHT22;30894;51.740;19.498;2024-01-07T18:31:40;-7.30;99.90
45137;DHT22;30894;51.740;19.498;2024-01-07T18:34:12;-7.30;99.90
45137;DHT22;30894;51.740;19.498;2024-01-07T18:36:40;-7.30;99.90
45137;DHT22;30894;51.740;19.498;2024-01-07T18:39:12;-7.30;99.90
45137;DHT22;30894;51.740;19.498;2024-01-07T18:41:38;-7.30;99.90
45137;DHT22;30894;51.740;19.498;2024-01-07T18:44:07;-7.30;99.90
45137;DHT22;30894;51.740;19.498;2024-01-07T18:46:38;-7.30;99.90
45137;DHT22;30894;51.740;19.498;2024-01-07T18:49:04;-7.30;99.90
45137;DHT22;30894;51.740;19.498;2024-01-07T18:51:31;-7.30;99.90
45137;DHT22;30894;51.740;19.498;2024-01-07T18:54:07;-7.30;99.90
45137;DHT22;30894;51.740;19.498;2024-01-07T18:56:33;-7.30;99.90
45137;DHT22;30894;51.740;19.498;2024-01-07T18:59:01;-7.30;99.90
45137;DHT22;30894;51.740;19.498;2024-01-07T19:01:27;-7.30;99.90
45137;DHT22;30894;51.740;19.498;2024-01-07T19:03:57;-7.30;99.90
45137;DHT22;30894;51.740;19.498;2024-01-07T19:06:23;-7.40;99.90
45137;DHT22;30894;51.740;19.498;2024-01-07T19:08:50;-7.30;99.90
45137;DHT22;30894;51.740;19.498;2024-01-07T19:11:18;-7.40;99.90
45137;DHT22;30894;51.740;19.498;2024-01-07T19:13:45;-7.40;99.90
45137;DHT22;30894;51.740;19.498;2024-01-07T19:16:12;-7.40;99.90
45137;DHT22;30894;51.740;19.498;2024-01-07T19:18:38;-7.40;99.90